Time;durP1;ratioP1;P1;durP2;ratioP2;P2;SDS_P1;SDS_P2;PMS_P1;PMS_P2;Temp;Humidity;BMP_temperature;BMP_pressure;BME280_temperature;BME280_humidity;BME280_pressure;Samples;Min_cycle;Max_cycle;Signal;HPM_P1;HPM_P2
2024/01/23 00:00:44;;;;;;;8.93;2.15;;;;;;;16.00;45.34;101511.56;4974605;28;20026;-63
2024/01/23 00:03:09;;;;;;;18.13;2.65;;;;;;;15.99;44.67;101529.66;4974783;28;20061;-63
2024/01/23 00:05:35;;;;;;;13.07;1.63;;;;;;;15.99;45.04;101534.22;4974665;28;20078;-63
2024/01/23 00:08:00;;;;;;;14.95;3.05;;;;;;;15.95;44.87;101533.66;4975917;28;20446;-63
2024/01/23 00:10:25;;;;;;;14.27;1.90;;;;;;;15.97;44.95;101552.44;4974295;28;20439;-63
2024/01/23 00:12:51;;;;;;;10.93;1.60;;;;;;;15.95;45.46;101549.00;4958610;28;20446;-63
2024/01/23 00:15:18;;;;;;;8.73;2.72;;;;;;;15.94;45.51;101563.53;4942301;28;20038;-64
2024/01/23 00:17:43;;;;;;;7.85;2.15;;;;;;;15.93;44.75;101572.63;4974681;28;20030;-63
2024/01/23 00:20:09;;;;;;;12.07;2.08;;;;;;;15.94;45.40;101574.34;4958902;28;20101;-63
2024/01/23 00:22:35;;;;;;;9.35;2.05;;;;;;;15.92;44.68;101592.53;4959104;28;20132;-63
2024/01/23 00:25:00;;;;;;;17.73;2.95;;;;;;;15.94;45.05;101598.66;4976238;28;20494;-62
2024/01/23 00:27:26;;;;;;;16.08;2.42;;;;;;;15.92;45.65;101597.94;4975355;28;20564;-63
2024/01/23 00:29:51;;;;;;;22.48;2.67;;;;;;;15.91;45.15;101596.25;4975974;28;20118;-63
2024/01/23 00:32:17;;;;;;;8.30;2.38;;;;;;;15.90;45.70;101594.53;4959687;28;20093;-63
2024/01/23 00:34:42;;;;;;;13.60;2.38;;;;;;;15.91;45.01;101598.94;4977001;28;20414;-63
2024/01/23 00:37:07;;;;;;;12.50;2.45;;;;;;;15.92;44.68;101592.53;4974545;28;20038;-63
2024/01/23 00:39:39;;;;;;;12.32;1.92;;;;;;;15.90;45.40;101599.94;4975493;28;20038;-63
2024/01/23 00:42:08;;;;;;;12.68;1.77;;;;;;;15.92;44.96;101603.34;4974632;28;20035;-63
2024/01/23 00:44:34;;;;;;;7.88;1.55;;;;;;;15.91;45.02;101618.72;4973897;28;20031;-63
2024/01/23 00:46:59;;;;;;;12.23;2.55;;;;;;;15.90;44.75;101622.41;4978904;28;20061;-63
2024/01/23 00:49:24;;;;;;;16.27;3.50;;;;;;;15.91;45.40;101629.53;4990497;28;20062;-63
2024/01/23 00:51:50;;;;;;;20.20;3.08;;;;;;;15.93;43.96;101632.06;4993919;28;20055;-63
2024/01/23 00:54:15;;;;;;;14.88;1.80;;;;;;;15.96;45.01;101629.09;4995033;28;20402;-63
2024/01/23 00:56:42;;;;;;;10.95;2.47;;;;;;;15.97;45.21;101638.91;4977657;28;20034;-63
2024/01/23 00:59:09;;;;;;;19.30;2.65;;;;;;;15.97;45.06;101639.72;4995436;28;20038;-63
2024/01/23 01:01:36;;;;;;;21.33;2.60;;;;;;;15.96;44.61;101648.00;4993056;28;20039;-63
2024/01/23 01:04:02;;;;;;;13.98;2.38;;;;;;;15.98;44.20;101663.06;4994413;28;20066;-63
2024/01/23 01:06:28;;;;;;;16.00;2.05;;;;;;;15.98;44.04;101668.47;4992829;28;20104;-63
2024/01/23 01:08:53;;;;;;;9.20;3.13;;;;;;;15.96;44.65;101669.63;4993469;28;20046;-63
2024/01/23 01:11:19;;;;;;;14.20;2.17;;;;;;;15.99;44.89;101685.53;4992615;28;20050;-62
2024/01/23 01:13:45;;;;;;;14.15;2.33;;;;;;;15.99;44.78;101686.41;4976722;28;20117;-63
2024/01/23 01:16:10;;;;;;;9.70;2.08;;;;;;;15.95;44.24;101682.28;4993881;28;20227;-62
2024/01/23 01:18:36;;;;;;;12.43;2.47;;;;;;;15.93;44.05;101686.13;4994111;28;20034;-63
2024/01/23 01:21:02;;;;;;;12.43;1.65;;;;;;;15.91;44.51;101691.69;4993286;28;20125;-63
2024/01/23 01:23:28;;;;;;;14.35;2.08;;;;;;;15.89;43.97;101703.59;4992721;28;20398;-63
2024/01/23 01:25:53;;;;;;;11.70;1.80;;;;;;;15.89;43.74;101709.00;4992764;28;20117;-63
2024/01/23 01:28:19;;;;;;;17.60;2.08;;;;;;;15.87;44.67;101716.41;4992509;28;20058;-63
2024/01/23 01:30:45;;;;;;;11.65;3.10;;;;;;;15.85;44.04;101704.88;4992392;28;20042;-63
2024/01/23 01:33:10;;;;;;;10.57;2.10;;;;;;;15.82;44.58;101713.28;4993671;28;20081;-63
2024/01/23 01:35:35;;;;;;;12.52;2.03;;;;;;;15.78;44.11;101714.53;4992522;28;20038;-63
2024/01/23 01:38:01;;;;;;;14.43;1.70;;;;;;;15.77;44.57;101729.06;4992623;28;20121;-63
2024/01/23 01:40:26;;;;;;;7.63;1.50;;;;;;;15.73;45.01;101723.94;4980909;28;20026;-63
2024/01/23 01:42:52;;;;;;;11.68;1.95;;;;;;;15.76;43.76;101740.84;4973293;28;20031;-63
2024/01/23 01:45:17;;;;;;;6.82;1.45;;;;;;;15.73;43.61;101741.97;4943115;28;20042;-63
2024/01/23 01:47:43;;;;;;;6.70;1.20;;;;;;;15.69;44.15;101738.69;4967418;28;20039;-63
2024/01/23 01:50:09;;;;;;;15.85;2.80;;;;;;;15.68;43.75;101737.00;4974180;28;20031;-63
2024/01/23 01:52:34;;;;;;;13.57;1.95;;;;;;;15.68;44.70;101738.84;4972981;28;20031;-63
2024/01/23 01:55:00;;;;;;;10.35;1.38;;;;;;;15.70;43.87;101753.94;4972984;28;20524;-63
2024/01/23 01:57:31;;;;;;;7.63;1.55;;;;;;;15.69;44.22;101749.50;4972979;28;20035;-63
2024/01/23 01:59:56;;;;;;;10.73;2.40;;;;;;;15.67;43.22;101756.91;4974252;28;20062;-63
2024/01/23 02:02:22;;;;;;;9.73;1.48;;;;;;;15.64;44.27;101759.88;4957958;28;20519;-62
2024/01/23 02:04:47;;;;;;;9.10;1.67;;;;;;;15.59;44.18;101764.84;4968864;28;20406;-62
2024/01/23 02:07:13;;;;;;;11.45;1.70;;;;;;;15.60;44.77;101771.13;4972861;28;20042;-62
2024/01/23 02:09:39;;;;;;;13.02;1.75;;;;;;;15.57;44.18;101772.25;4972543;28;20529;-63
2024/01/23 02:12:05;;;;;;;12.48;1.92;;;;;;;15.53;43.43;101781.59;4974058;28;20118;-62
2024/01/23 02:14:31;;;;;;;6.53;1.23;;;;;;;15.51;44.50;101789.00;4940345;28;20438;-62
2024/01/23 02:16:56;;;;;;;12.95;2.47;;;;;;;15.48;44.14;101794.66;4969080;28;20035;-63
2024/01/23 02:19:21;;;;;;;4.68;1.77;;;;;;;15.48;43.65;101800.06;4989278;28;20035;-62
2024/01/23 02:21:46;;;;;;;12.15;1.75;;;;;;;15.46;44.30;101796.66;4976018;28;20139;-63
2024/01/23 02:24:12;;;;;;;11.35;2.28;;;;;;;15.46;44.30;101799.38;4976515;28;20038;-62
2024/01/23 02:26:37;;;;;;;13.93;1.67;;;;;;;15.47;43.62;101803.75;4976853;28;20039;-63
2024/01/23 02:29:02;;;;;;;13.48;1.83;;;;;;;15.48;43.53;101815.41;4977933;28;20035;-62
2024/01/23 02:31:28;;;;;;;10.77;1.40;;;;;;;15.44;44.13;101809.38;4976826;28;20499;-63
2024/01/23 02:33:53;;;;;;;7.75;1.80;;;;;;;15.43;43.18;101823.03;4992510;28;20046;-63
2024/01/23 02:36:19;;;;;;;23.00;2.10;;;;;;;15.38;43.68;101819.91;4976259;28;20470;-63
2024/01/23 02:38:44;;;;;;;4.60;1.58;;;;;;;15.36;43.71;101824.56;4976301;28;20443;-62
2024/01/23 02:41:11;;;;;;;16.77;1.65;;;;;;;15.34;44.47;101813.03;4977411;28;20508;-63
2024/01/23 02:43:36;;;;;;;10.70;1.48;;;;;;;15.30;44.21;101831.34;4975988;28;20158;-63
2024/01/23 02:46:03;;;;;;;16.85;1.88;;;;;;;15.32;44.46;101842.03;4976213;28;20610;-62
2024/01/23 02:48:28;;;;;;;14.90;2.13;;;;;;;15.29;44.40;101845.00;4976066;28;20046;-63
2024/01/23 02:50:53;;;;;;;12.52;2.55;;;;;;;15.23;44.73;101842.84;4976392;28;20043;-63
2024/01/23 02:53:19;;;;;;;7.60;1.67;;;;;;;15.21;43.69;101837.59;4978436;28;20039;-69
2024/01/23 02:55:44;;;;;;;10.27;2.53;;;;;;;15.19;45.00;101850.34;4979222;28;20031;-69
2024/01/23 02:58:10;;;;;;;12.23;1.55;;;;;;;15.19;44.22;101853.03;4978495;28;20034;-68
2024/01/23 03:00:37;;;;;;;15.27;1.98;;;;;;;15.15;43.51;101848.91;4976706;28;20090;-69
2024/01/23 03:03:04;;;;;;;15.98;2.05;;;;;;;15.12;44.45;101854.56;4976624;28;20039;-69
2024/01/23 03:05:29;;;;;;;8.63;2.15;;;;;;;15.08;44.50;101855.81;4976842;28;20045;-69
2024/01/23 03:07:54;;;;;;;11.38;2.13;;;;;;;15.07;44.53;101864.91;4992977;28;20031;-69
2024/01/23 03:10:20;;;;;;;15.43;2.50;;;;;;;15.03;45.04;101869.72;4956897;28;20047;-69
2024/01/23 03:12:46;;;;;;;11.65;2.47;;;;;;;15.02;43.53;101875.22;4958129;28;20035;-68
2024/01/23 03:15:11;;;;;;;15.48;1.90;;;;;;;15.01;44.09;101874.41;4974939;28;20039;-68
2024/01/23 03:17:37;;;;;;;10.93;1.65;;;;;;;15.02;44.31;101880.63;4977675;28;20421;-70
2024/01/23 03:20:03;;;;;;;11.23;4.15;;;;;;;14.99;44.10;101883.63;4976401;28;20039;-69
2024/01/23 03:22:28;;;;;;;15.13;1.80;;;;;;;15.01;43.81;101889.72;4976469;28;20113;-69
2024/01/23 03:24:54;;;;;;;13.43;2.22;;;;;;;14.97;44.79;101897.22;4976221;28;20089;-69
2024/01/23 03:27:19;;;;;;;15.18;2.42;;;;;;;14.95;45.00;101895.63;4976165;28;20566;-69
2024/01/23 03:29:45;;;;;;;15.10;3.60;;;;;;;14.93;43.73;101911.97;4977143;28;20035;-69
2024/01/23 03:32:11;;;;;;;10.40;1.90;;;;;;;14.91;44.88;101910.38;4956485;28;20069;-69
2024/01/23 03:34:37;;;;;;;11.43;2.28;;;;;;;14.90;44.72;101916.78;4956662;29;20055;-68
2024/01/23 03:37:03;;;;;;;10.48;2.47;;;;;;;14.92;45.34;101920.19;4976370;28;20046;-68
2024/01/23 03:39:29;;;;;;;9.65;2.00;;;;;;;14.92;44.00;101921.03;4975946;28;20035;-68
2024/01/23 03:41:54;;;;;;;15.68;1.67;;;;;;;14.91;44.68;101937.34;4975843;28;20055;-68
2024/01/23 03:44:21;;;;;;;15.75;2.70;;;;;;;14.91;43.87;101935.50;4975817;28;20510;-68
2024/01/23 03:46:49;;;;;;;10.95;2.55;;;;;;;14.87;44.55;101938.59;4991727;28;20041;-68
2024/01/23 03:49:14;;;;;;;9.85;2.00;;;;;;;14.88;45.13;101934.94;4975639;28;20042;-68
2024/01/23 03:51:40;;;;;;;8.82;1.83;;;;;;;14.88;44.71;101940.34;4991957;28;20041;-68
2024/01/23 03:54:05;;;;;;;15.52;2.60;;;;;;;14.84;45.05;101944.25;4977047;28;20050;-67
2024/01/23 03:56:30;;;;;;;11.35;1.65;;;;;;;14.85;44.08;101959.47;4959869;28;20027;-67
2024/01/23 03:58:56;;;;;;;10.15;1.75;;;;;;;14.80;44.63;101953.59;4975532;28;20101;-68
2024/01/23 04:01:22;;;;;;;13.60;2.00;;;;;;;14.80;44.04;101967.94;4975636;28;20532;-62
2024/01/23 04:03:47;;;;;;;18.00;2.63;;;;;;;14.82;43.50;101973.22;4975814;28;20082;-62
2024/01/23 04:06:12;;;;;;;10.45;1.88;;;;;;;14.83;44.31;101985.69;4974582;28;20023;-62
2024/01/23 04:08:38;;;;;;;6.35;1.40;;;;;;;14.84;44.03;101982.03;4974555;28;20078;-62
2024/01/23 04:11:03;;;;;;;16.38;2.47;;;;;;;14.83;44.43;101993.78;4974749;28;20074;-62
2024/01/23 04:13:28;;;;;;;14.18;2.10;;;;;;;14.84;44.55;101987.41;4975899;28;20022;-63
2024/01/23 04:15:54;;;;;;;10.57;2.15;;;;;;;14.84;43.89;101998.22;4975182;28;20394;-62
2024/01/23 04:18:19;;;;;;;7.85;2.00;;;;;;;14.86;44.93;101996.22;4975347;28;20394;-62
2024/01/23 04:20:44;;;;;;;6.20;1.83;;;;;;;14.84;44.89;101998.22;4975959;28;20465;-62
2024/01/23 04:23:09;;;;;;;9.48;2.03;;;;;;;14.81;43.92;101993.06;4977037;28;20019;-62
2024/01/23 04:25:35;;;;;;;11.98;2.03;;;;;;;14.80;44.80;101997.59;4975761;28;20030;-62
2024/01/23 04:28:00;;;;;;;8.43;1.58;;;;;;;14.75;44.67;101997.13;4977086;28;20023;-62
2024/01/23 04:30:26;;;;;;;20.10;3.20;;;;;;;14.76;43.57;102016.88;4977609;28;20395;-62
2024/01/23 04:32:51;;;;;;;12.25;2.30;;;;;;;14.74;44.11;102013.47;4975710;28;20451;-62
2024/01/23 04:35:16;;;;;;;15.40;2.17;;;;;;;14.76;44.01;102019.56;4974364;28;20371;-62
2024/01/23 04:37:42;;;;;;;10.98;1.42;;;;;;;14.76;44.24;102024.97;4973752;28;20050;-62
2024/01/23 04:40:10;;;;;;;9.73;1.42;;;;;;;14.75;43.54;102031.34;4974289;28;20050;-62
2024/01/23 04:42:35;;;;;;;7.65;1.77;;;;;;;14.72;44.47;102032.44;4975297;28;20040;-62
2024/01/23 04:45:01;;;;;;;20.95;2.20;;;;;;;14.68;44.76;102046.31;4972862;28;20103;-62
2024/01/23 04:47:26;;;;;;;14.27;2.63;;;;;;;14.65;44.36;102047.44;4973881;28;20027;-62
2024/01/23 04:49:53;;;;;;;15.55;2.30;;;;;;;14.62;44.20;102047.69;4988464;28;20034;-62
2024/01/23 04:52:18;;;;;;;15.15;2.58;;;;;;;14.62;44.40;102063.88;4994408;28;20026;-62
2024/01/23 04:54:44;;;;;;;18.30;2.55;;;;;;;14.64;44.59;102079.91;4993123;28;20041;-62
2024/01/23 04:57:10;;;;;;;13.40;2.03;;;;;;;14.60;43.66;102081.16;4993500;28;20068;-62
2024/01/23 04:59:35;;;;;;;5.20;1.48;;;;;;;14.56;43.39;102086.78;4976924;28;20022;-62
2024/01/23 05:02:00;;;;;;;8.45;1.55;;;;;;;14.54;44.94;102083.34;4993142;28;20061;-62
2024/01/23 05:04:26;;;;;;;7.03;2.03;;;;;;;14.50;43.75;102092.69;4993074;28;20077;-62
2024/01/23 05:06:51;;;;;;;6.45;1.20;;;;;;;14.47;43.75;102092.91;4976588;28;20037;-62
2024/01/23 05:09:16;;;;;;;19.05;1.58;;;;;;;14.42;43.54;102095.13;4992989;28;20537;-62
2024/01/23 05:11:42;;;;;;;5.90;1.55;;;;;;;14.39;44.16;102108.00;4992995;28;20030;-62
2024/01/23 05:14:07;;;;;;;12.30;1.65;;;;;;;14.34;44.18;102102.97;4992947;28;20113;-62
2024/01/23 05:16:34;;;;;;;16.92;2.92;;;;;;;14.34;43.55;102107.50;4976563;28;20037;-63
2024/01/23 05:18:59;;;;;;;8.63;1.58;;;;;;;14.30;44.22;102112.25;4992892;28;20038;-62
2024/01/23 05:21:25;;;;;;;9.82;1.50;;;;;;;14.26;44.74;102120.69;4992654;28;20034;-63
2024/01/23 05:23:50;;;;;;;8.82;1.50;;;;;;;14.28;44.86;102129.50;4994205;28;20034;-62
2024/01/23 05:26:16;;;;;;;11.60;1.50;;;;;;;14.23;43.89;102146.06;4992870;28;20549;-63
2024/01/23 05:28:41;;;;;;;11.65;1.75;;;;;;;14.24;43.49;102150.44;4992365;28;20038;-62
2024/01/23 05:31:06;;;;;;;11.02;1.88;;;;;;;14.21;44.49;102145.31;4976099;28;20038;-63
2024/01/23 05:33:32;;;;;;;5.03;1.52;;;;;;;14.20;45.13;102148.13;4993937;28;20041;-62
2024/01/23 05:35:57;;;;;;;12.70;1.65;;;;;;;14.15;43.45;102145.81;4992590;28;20045;-63
2024/01/23 05:38:22;;;;;;;8.00;1.92;;;;;;;14.13;43.78;102136.09;4994241;28;20059;-62
2024/01/23 05:40:48;;;;;;;10.52;2.47;;;;;;;14.15;44.47;102151.19;4992621;28;20034;-63
2024/01/23 05:43:14;;;;;;;8.57;2.72;;;;;;;14.10;44.51;102137.19;4992480;28;20485;-62
2024/01/23 05:45:39;;;;;;;7.20;1.50;;;;;;;14.09;43.36;102164.28;4969837;28;20110;-63
2024/01/23 05:48:06;;;;;;;9.25;1.45;;;;;;;14.08;43.42;102171.50;4957070;28;20117;-62
2024/01/23 05:50:32;;;;;;;11.70;2.30;;;;;;;14.07;44.93;102175.16;4974197;28;20038;-63
2024/01/23 05:52:57;;;;;;;12.40;2.78;;;;;;;14.05;44.61;102182.50;4972911;28;20105;-63
2024/01/23 05:55:22;;;;;;;9.25;1.83;;;;;;;14.05;43.55;102198.69;4972904;28;20490;-62
2024/01/23 05:57:48;;;;;;;13.15;3.17;;;;;;;14.05;44.61;102203.19;4974515;28;20038;-63
2024/01/23 06:00:14;;;;;;;10.48;1.92;;;;;;;14.06;43.92;102218.41;4973001;28;20031;-62
2024/01/23 06:02:40;;;;;;;9.55;1.98;;;;;;;14.04;43.69;102221.22;4973154;28;20093;-62
2024/01/23 06:05:06;;;;;;;7.68;1.52;;;;;;;14.02;44.71;102217.78;4968469;28;20046;-62
2024/01/23 06:07:38;;;;;;;12.43;2.03;;;;;;;14.00;45.01;102225.97;4975195;28;20088;-63
2024/01/23 06:10:04;;;;;;;19.70;2.13;;;;;;;13.99;44.18;102221.56;4993022;28;20038;-62
2024/01/23 06:12:32;;;;;;;7.38;1.55;;;;;;;13.96;44.33;102221.78;4992251;28;20061;-62
2024/01/23 06:14:57;;;;;;;9.50;2.58;;;;;;;13.92;44.14;102219.47;4993322;28;20050;-62
2024/01/23 06:17:23;;;;;;;10.75;2.63;;;;;;;13.90;44.14;102229.50;4993541;28;20371;-62
2024/01/23 06:19:48;;;;;;;14.50;2.65;;;;;;;13.92;43.63;102235.63;4985727;28;20065;-62
2024/01/23 06:22:13;;;;;;;14.05;1.95;;;;;;;13.91;45.12;102229.38;4974184;28;20557;-62
2024/01/23 06:24:39;;;;;;;12.80;2.13;;;;;;;13.88;44.64;102228.72;4985360;28;20030;-64
2024/01/23 06:27:05;;;;;;;9.15;1.83;;;;;;;13.84;44.08;102228.13;4989278;28;20035;-62
2024/01/23 06:29:30;;;;;;;14.55;1.52;;;;;;;13.86;44.50;102245.03;4976006;28;20379;-62
2024/01/23 06:31:56;;;;;;;7.32;1.95;;;;;;;13.87;45.00;102253.97;4992046;28;20034;-62
2024/01/23 06:34:21;;;;;;;5.63;1.73;;;;;;;13.86;44.53;102263.00;4972603;28;20045;-65
2024/01/23 06:36:47;;;;;;;12.23;1.80;;;;;;;13.84;44.46;102273.91;4966144;28;20034;-64
2024/01/23 06:39:12;;;;;;;6.72;1.70;;;;;;;13.82;43.43;102277.66;4975307;28;20045;-65
2024/01/23 06:41:38;;;;;;;16.95;2.00;;;;;;;13.78;44.84;102273.50;4972465;28;20045;-65
2024/01/23 06:44:03;;;;;;;11.35;1.20;;;;;;;13.75;44.59;102279.97;4973908;28;20039;-65
2024/01/23 06:46:28;;;;;;;10.18;2.03;;;;;;;13.72;44.12;102287.41;4972452;28;20065;-64
2024/01/23 06:48:54;;;;;;;12.68;2.42;;;;;;;13.70;43.99;102279.47;4977712;28;20035;-65
2024/01/23 06:51:21;;;;;;;8.68;1.40;;;;;;;13.71;45.26;102291.06;4990806;28;20412;-64
2024/01/23 06:53:46;;;;;;;9.90;1.80;;;;;;;13.70;43.79;102301.00;4993163;28;20172;-64
2024/01/23 06:56:11;;;;;;;16.20;1.98;;;;;;;13.68;43.99;102296.72;4975876;28;20506;-64
2024/01/23 06:58:37;;;;;;;8.73;2.38;;;;;;;13.64;44.81;102289.81;4991910;28;20510;-65
2024/01/23 07:01:02;;;;;;;10.30;2.83;;;;;;;13.64;43.77;102295.22;4991630;28;20038;-66
2024/01/23 07:03:29;;;;;;;7.53;1.40;;;;;;;13.63;43.76;102293.47;4993204;28;20026;-64
2024/01/23 07:05:54;;;;;;;14.63;1.67;;;;;;;13.63;43.99;102306.94;4974621;28;20037;-65
2024/01/23 07:08:20;;;;;;;11.77;1.98;;;;;;;13.62;44.76;102302.53;4995380;28;20034;-64
2024/01/23 07:10:46;;;;;;;12.55;1.63;;;;;;;13.61;45.19;102314.28;4989969;28;20045;-65
2024/01/23 07:13:11;;;;;;;14.25;2.13;;;;;;;13.60;45.23;102312.53;4996797;28;20041;-64
2024/01/23 07:15:36;;;;;;;14.55;3.13;;;;;;;13.59;44.98;102314.41;4998788;28;20050;-65
2024/01/23 07:18:02;;;;;;;13.45;1.90;;;;;;;13.57;45.20;102310.09;4996766;28;20041;-65
2024/01/23 07:20:28;;;;;;;22.90;1.98;;;;;;;13.54;44.29;102311.16;4995129;28;20105;-65
2024/01/23 07:22:53;;;;;;;19.20;2.70;;;;;;;13.53;44.04;102308.59;4996383;28;20034;-65
2024/01/23 07:25:18;;;;;;;17.55;2.13;;;;;;;13.53;44.89;102308.59;4995112;28;20054;-65
2024/01/23 07:27:44;;;;;;;11.75;1.58;;;;;;;13.53;43.98;102313.97;4976355;28;20093;-64
2024/01/23 07:30:10;;;;;;;6.88;1.42;;;;;;;13.51;44.25;102305.16;4996370;28;20042;-65
2024/01/23 07:32:35;;;;;;;12.35;1.40;;;;;;;13.49;44.77;102307.09;4993825;28;20485;-65
2024/01/23 07:35:01;;;;;;;16.08;1.75;;;;;;;13.47;44.28;102304.53;4994887;28;20034;-65
2024/01/23 07:37:27;;;;;;;7.20;1.13;;;;;;;13.51;44.03;102321.31;4978653;28;20034;-65
2024/01/23 07:39:52;;;;;;;16.00;2.22;;;;;;;13.49;44.33;102316.03;4996448;28;20028;-65
2024/01/23 07:42:17;;;;;;;16.15;2.13;;;;;;;13.50;44.10;102322.28;4978492;28;20109;-65
2024/01/23 07:44:43;;;;;;;11.45;2.15;;;;;;;13.47;44.91;102325.19;4978814;28;20037;-64
2024/01/23 07:47:09;;;;;;;16.30;1.75;;;;;;;13.50;44.10;102320.44;4996312;28;20030;-65
2024/01/23 07:49:35;;;;;;;9.40;1.85;;;;;;;13.53;44.29;102322.06;4995172;28;20038;-65
2024/01/23 07:52:01;;;;;;;11.18;2.15;;;;;;;13.51;45.83;102324.00;4996143;28;20038;-64
2024/01/23 07:54:27;;;;;;;14.10;1.88;;;;;;;13.53;45.50;102330.13;4978691;28;20414;-65
2024/01/23 07:56:52;;;;;;;11.10;3.33;;;;;;;13.54;45.93;102321.94;4995771;28;20033;-65
2024/01/23 07:59:19;;;;;;;14.32;2.17;;;;;;;13.59;45.30;102329.69;4994396;28;20094;-64
2024/01/23 08:01:44;;;;;;;12.75;1.73;;;;;;;13.63;44.39;102331.19;4978365;28;20034;-64
2024/01/23 08:04:13;;;;;;;18.38;3.05;;;;;;;13.64;45.95;102332.91;4995661;28;20096;-64
2024/01/23 08:06:38;;;;;;;17.67;2.88;;;;;;;13.68;45.83;102334.41;4994437;28;20057;-64
2024/01/23 08:09:07;;;;;;;16.10;2.67;;;;;;;13.72;44.44;102343.97;4978121;28;20041;-64
2024/01/23 08:11:34;;;;;;;12.48;2.55;;;;;;;13.72;44.99;102346.66;4995484;28;20038;-64
2024/01/23 08:14:00;;;;;;;11.07;1.95;;;;;;;13.76;44.28;102351.69;4993743;28;20034;-64
2024/01/23 08:16:26;;;;;;;11.65;2.00;;;;;;;13.75;44.41;102352.69;4994616;28;20041;-64
2024/01/23 08:18:51;;;;;;;14.77;2.97;;;;;;;13.80;45.75;102358.59;4994911;28;20050;-64
2024/01/23 08:21:17;;;;;;;9.95;2.20;;;;;;;13.82;44.38;102369.25;4994936;28;20030;-64
2024/01/23 08:23:43;;;;;;;15.50;2.70;;;;;;;13.87;45.51;102370.63;4978526;28;20031;-65
2024/01/23 08:26:08;;;;;;;18.15;1.90;;;;;;;13.89;44.33;102375.91;4996243;28;20117;-64
2024/01/23 08:28:37;;;;;;;14.63;2.05;;;;;;;13.89;44.47;102381.31;4995222;28;20528;-64
2024/01/23 08:31:05;;;;;;;13.30;2.55;;;;;;;13.92;44.79;102381.09;4977552;28;20056;-64
2024/01/23 08:33:31;;;;;;;15.43;2.65;;;;;;;13.91;44.96;102382.91;4992585;28;20042;-65
2024/01/23 08:35:57;;;;;;;17.52;2.47;;;;;;;13.97;45.01;102392.38;4991480;28;20075;-64
2024/01/23 08:38:22;;;;;;;14.70;1.75;;;;;;;14.02;46.01;102390.19;4993924;28;20041;-65
2024/01/23 08:40:47;;;;;;;19.35;3.30;;;;;;;14.02;44.81;102401.84;4993794;28;20406;-64
2024/01/23 08:43:12;;;;;;;16.45;2.42;;;;;;;14.02;44.79;102406.38;4977512;28;20434;-63
2024/01/23 08:45:39;;;;;;;16.08;2.38;;;;;;;14.04;45.63;102398.19;4993703;28;20414;-64
2024/01/23 08:48:04;;;;;;;20.83;2.53;;;;;;;14.09;45.72;102409.47;4977236;28;20486;-64
2024/01/23 08:50:30;;;;;;;11.75;2.30;;;;;;;14.12;46.31;102420.91;4977341;28;20057;-64
2024/01/23 08:52:56;;;;;;;10.60;2.47;;;;;;;14.19;46.22;102432.94;4993763;28;20034;-64
2024/01/23 08:55:21;;;;;;;15.85;2.40;;;;;;;14.23;45.12;102428.19;4993625;28;20030;-64
2024/01/23 08:57:46;;;;;;;12.25;2.22;;;;;;;14.29;45.51;102433.97;4993543;28;20041;-64
2024/01/23 09:00:14;;;;;;;13.02;2.38;;;;;;;14.39;45.42;102439.59;4993381;28;20114;-64
2024/01/23 09:02:40;;;;;;;12.15;2.20;;;;;;;14.48;44.73;102441.59;4994297;28;20044;-64
2024/01/23 09:05:05;;;;;;;21.10;2.58;;;;;;;14.60;45.30;102445.22;4993054;28;20042;-64
2024/01/23 09:07:30;;;;;;;13.82;2.58;;;;;;;14.71;45.28;102450.66;4994396;28;20035;-64
2024/01/23 09:09:56;;;;;;;24.77;2.63;;;;;;;14.84;45.61;102448.75;4976675;28;20050;-64
2024/01/23 09:12:22;;;;;;;19.92;2.55;;;;;;;14.97;45.57;102460.31;4993135;28;20068;-65
2024/01/23 09:14:47;;;;;;;19.40;3.13;;;;;;;15.09;44.08;102456.69;4976772;28;20038;-64
2024/01/23 09:17:12;;;;;;;16.17;2.20;;;;;;;15.18;44.90;102466.78;4994291;28;20030;-65
2024/01/23 09:19:38;;;;;;;20.45;2.92;;;;;;;15.29;45.29;102457.84;4992908;28;20038;-65
2024/01/23 09:22:04;;;;;;;12.82;2.45;;;;;;;15.35;44.49;102458.22;4992896;28;20027;-64
2024/01/23 09:24:29;;;;;;;12.40;2.17;;;;;;;15.47;44.32;102445.59;4976827;28;20038;-65
2024/01/23 09:26:59;;;;;;;15.10;1.88;;;;;;;15.52;44.52;102452.34;4976674;28;20166;-65
2024/01/23 09:29:25;;;;;;;21.20;2.70;;;;;;;15.60;44.30;102444.53;4993733;28;20084;-65
2024/01/23 09:31:50;;;;;;;17.23;3.30;;;;;;;15.71;44.37;102444.53;4992640;28;20038;-66
2024/01/23 09:34:16;;;;;;;13.23;2.20;;;;;;;15.85;44.76;102434.44;4992454;28;20044;-64
2024/01/23 09:36:41;;;;;;;14.68;3.38;;;;;;;15.99;43.28;102429.66;4976208;28;20038;-65
2024/01/23 09:39:07;;;;;;;13.88;2.50;;;;;;;16.11;44.35;102431.34;4992785;28;20104;-65
2024/01/23 09:41:36;;;;;;;14.40;2.53;;;;;;;16.28;44.15;102416.44;4992677;28;20042;-65
2024/01/23 09:44:01;;;;;;;11.82;2.35;;;;;;;16.45;43.78;102424.00;4992517;28;20580;-65
2024/01/23 09:46:27;;;;;;;15.48;3.72;;;;;;;16.64;43.30;102412.50;4993762;28;20117;-65
2024/01/23 09:48:53;;;;;;;22.33;3.20;;;;;;;16.90;42.75;102430.13;4992390;28;20042;-65
2024/01/23 09:51:20;;;;;;;13.10;2.42;;;;;;;17.16;43.28;102436.00;4992742;28;20410;-65
2024/01/23 09:53:46;;;;;;;26.30;2.83;;;;;;;17.40;42.63;102433.88;4992865;28;20046;-64
2024/01/23 09:56:12;;;;;;;14.38;2.80;;;;;;;17.72;42.65;102423.81;4993950;28;20098;-65
2024/01/23 09:58:37;;;;;;;16.95;2.15;;;;;;;18.08;42.27;102433.19;4976291;28;20553;-64
2024/01/23 10:01:03;;;;;;;22.95;3.78;;;;;;;18.42;41.96;102434.56;4976071;28;20026;-64
2024/01/23 10:03:31;;;;;;;13.95;2.17;;;;;;;18.73;41.69;102427.19;4992465;28;20037;-64
2024/01/23 10:05:56;;;;;;;11.10;2.60;;;;;;;18.94;41.34;102419.75;4993485;28;20034;-65
2024/01/23 10:08:25;;;;;;;18.27;2.83;;;;;;;19.21;41.48;102420.84;4993540;28;20418;-65
2024/01/23 10:11:00;;;;;;;8.15;2.10;;;;;;;19.48;41.04;102412.78;4976299;28;20109;-65
2024/01/23 10:13:28;;;;;;;10.43;2.13;;;;;;;19.65;40.78;102414.75;4993554;28;20517;-64
2024/01/23 10:15:57;;;;;;;10.35;2.17;;;;;;;19.83;40.55;102412.91;4991209;28;20579;-65
2024/01/23 10:18:24;;;;;;;15.52;2.38;;;;;;;20.07;40.91;102413.22;4976166;28;20046;-64
2024/01/23 10:20:50;;;;;;;7.68;2.33;;;;;;;20.14;40.90;102411.59;4993391;28;20023;-64
2024/01/23 10:23:16;;;;;;;13.25;2.53;;;;;;;20.43;39.79;102395.13;4992217;28;20029;-65
2024/01/23 10:25:42;;;;;;;10.35;2.03;;;;;;;20.61;40.07;102408.72;4991685;28;20504;-64
2024/01/23 10:28:10;;;;;;;12.13;1.98;;;;;;;20.67;40.36;102408.97;4992077;28;20026;-65
2024/01/23 10:30:39;;;;;;;11.13;2.95;;;;;;;20.74;39.59;102411.94;4976235;28;20084;-65
2024/01/23 10:33:08;;;;;;;11.93;2.75;;;;;;;20.75;40.21;102419.06;4993583;28;20389;-65
2024/01/23 10:35:33;;;;;;;14.15;2.47;;;;;;;20.82;39.75;102415.56;4994519;28;20029;-65
2024/01/23 10:38:10;;;;;;;9.93;1.70;;;;;;;20.85;39.71;102426.13;4975836;28;20402;-65
2024/01/23 10:40:36;;;;;;;12.65;2.90;;;;;;;20.86;39.90;102418.81;4992640;28;20027;-64
2024/01/23 10:43:01;;;;;;;10.95;2.95;;;;;;;20.77;39.57;102414.34;4977747;28;20089;-65
2024/01/23 10:45:27;;;;;;;14.05;2.13;;;;;;;20.85;39.78;102417.97;4996929;28;20026;-65
2024/01/23 10:47:53;;;;;;;16.77;3.38;;;;;;;21.10;38.90;102402.72;4995776;28;20133;-66
2024/01/23 10:50:22;;;;;;;14.48;3.15;;;;;;;20.99;39.17;102424.75;4995941;28;20026;-66
2024/01/23 10:52:49;;;;;;;15.35;4.30;;;;;;;20.74;39.29;102414.66;4996862;28;20382;-65
2024/01/23 10:55:16;;;;;;;17.10;2.70;;;;;;;20.49;39.50;102409.97;4978777;28;20038;-65
2024/01/23 10:57:48;;;;;;;13.00;3.13;;;;;;;20.22;39.89;102402.66;4995457;28;20026;-64
2024/01/23 11:00:18;;;;;;;5.93;2.13;;;;;;;19.96;39.93;102399.81;4979658;28;20038;-65
2024/01/23 11:02:56;;;;;;;18.60;2.58;;;;;;;19.75;40.07;102393.78;4995426;28;20041;-64
2024/01/23 11:05:28;;;;;;;15.77;2.90;;;;;;;19.54;40.20;102395.91;4995589;28;20517;-64
2024/01/23 11:08:12;;;;;;;19.57;2.53;;;;;;;19.33;40.47;102409.66;4995666;28;20533;-65
2024/01/23 11:10:58;;;;;;;15.57;2.78;;;;;;;19.04;40.37;102409.72;4996586;28;20276;-65
2024/01/23 11:13:27;;;;;;;20.65;2.42;;;;;;;18.85;40.40;102398.88;4979133;28;20093;-64